Terminal Aerodrome Forecast
Issued by NWS

Home | Current Version | Previous Version | Text Only | Print | Product List | Glossary On
Versions: 1 2 3 4 5 6 7 8 9 10 11 12 13 14
252
FTUS45 KRIW 250520
TAFCPR
TAF
KCPR 250520Z 2506/2606 23011KT P6SM SCT030 BKN080
     FM251500 28010KT P6SM FEW080 SCT100
     FM260400 23008KT P6SM SCT080=

USA.gov is the U.S. government's official web portal to all federal, state and local government web resources and services.